Time;durP1;ratioP1;P1;durP2;ratioP2;P2;SDS_P1;SDS_P2;PMS_P1;PMS_P2;Temp;Humidity;BMP_temperature;BMP_pressure;BME280_temperature;BME280_humidity;BME280_pressure;Samples;Min_cycle;Max_cycle;Signal;HPM_P1;HPM_P2
2021/05/31 00:01:15;;;;;;;;;;;22.60;38.10;;;;;;1562585;75;699;-72
2021/05/31 00:03:17;;;;;;;;;;;22.70;38.00;;;;;;1557485;75;737;-71
2021/05/31 00:05:24;;;;;;;;;;;22.60;37.80;;;;;;1556715;75;814;-74
2021/05/31 00:07:22;;;;;;;;;;;22.60;37.80;;;;;;1557079;75;1162;-71
2021/05/31 00:09:24;;;;;;;;;;;22.70;37.90;;;;;;1560118;75;1931;-71
2021/05/31 00:11:26;;;;;;;;;;;22.60;37.80;;;;;;1565186;74;789;-71
2021/05/31 00:13:28;;;;;;;;;;;22.60;37.80;;;;;;1557099;75;739;-71
2021/05/31 00:15:30;;;;;;;;;;;22.70;37.70;;;;;;1564352;75;854;-71
2021/05/31 00:17:32;;;;;;;;;;;22.70;37.60;;;;;;1559615;75;1087;-71
2021/05/31 00:19:34;;;;;;;;;;;22.70;37.60;;;;;;1557272;75;775;-72
2021/05/31 00:21:35;;;;;;;;;;;22.70;37.60;;;;;;1559360;75;915;-71
2021/05/31 00:23:38;;;;;;;;;;;22.60;37.50;;;;;;1554878;75;753;-71
2021/05/31 00:25:39;;;;;;;;;;;22.60;37.40;;;;;;1558629;75;804;-72
2021/05/31 00:27:41;;;;;;;;;;;22.60;37.40;;;;;;1556758;75;1102;-74
2021/05/31 00:29:43;;;;;;;;;;;22.60;37.40;;;;;;1556402;74;1935;-73
2021/05/31 00:31:45;;;;;;;;;;;22.60;37.50;;;;;;1562530;75;754;-70
2021/05/31 00:33:47;;;;;;;;;;;22.60;37.60;;;;;;1557577;75;962;-72
2021/05/31 00:35:49;;;;;;;;;;;22.60;37.60;;;;;;1562325;75;1124;-72
2021/05/31 00:37:51;;;;;;;;;;;22.60;37.60;;;;;;1557160;75;795;-73
2021/05/31 00:39:52;;;;;;;;;;;22.60;37.60;;;;;;1565969;75;794;-71
2021/05/31 00:41:54;;;;;;;;;;;22.60;37.50;;;;;;1569914;75;787;-72
2021/05/31 00:43:56;;;;;;;;;;;22.60;37.50;;;;;;1572005;75;741;-74
2021/05/31 00:45:58;;;;;;;;;;;22.60;37.40;;;;;;1565876;75;1111;-73
2021/05/31 00:48:00;;;;;;;;;;;22.60;37.40;;;;;;1562496;75;721;-73
2021/05/31 00:50:02;;;;;;;;;;;22.60;37.40;;;;;;1574819;75;1938;-73
2021/05/31 00:52:04;;;;;;;;;;;22.60;37.30;;;;;;1570515;75;867;-73
2021/05/31 00:54:06;;;;;;;;;;;22.60;37.30;;;;;;1557527;75;684;-72
2021/05/31 00:56:08;;;;;;;;;;;22.60;37.30;;;;;;1558366;75;1240;-73
2021/05/31 00:58:10;;;;;;;;;;;22.70;37.30;;;;;;1570398;75;749;-74
2021/05/31 01:00:12;;;;;;;;;;;22.60;37.10;;;;;;1572374;74;800;-70
2021/05/31 01:02:14;;;;;;;;;;;22.60;37.10;;;;;;1567899;75;801;-73
2021/05/31 01:04:18;;;;;;;;;;;22.60;37.10;;;;;;1567979;74;807;-73
2021/05/31 01:06:20;;;;;;;;;;;22.60;37.10;;;;;;1574690;75;1199;-71
2021/05/31 01:08:23;;;;;;;;;;;22.60;37.10;;;;;;1567530;75;761;-73
2021/05/31 01:10:27;;;;;;;;;;;22.60;37.10;;;;;;1567698;75;1967;-74
2021/05/31 01:12:32;;;;;;;;;;;22.60;37.00;;;;;;1574220;75;869;-73
2021/05/31 01:14:36;;;;;;;;;;;22.60;37.00;;;;;;1570640;75;732;-69
2021/05/31 01:16:42;;;;;;;;;;;22.60;37.00;;;;;;1565438;75;1097;-74
2021/05/31 01:18:46;;;;;;;;;;;22.60;36.90;;;;;;1569689;75;1166;-73
2021/05/31 01:20:52;;;;;;;;;;;22.60;36.90;;;;;;1574419;75;1683;-74
2021/05/31 01:22:54;;;;;;;;;;;22.60;36.90;;;;;;1577067;75;783;-72
2021/05/31 01:25:00;;;;;;;;;;;22.60;36.90;;;;;;1573828;75;869;-72
2021/05/31 01:27:03;;;;;;;;;;;22.60;37.00;;;;;;1579462;75;1399;-73
2021/05/31 01:29:06;;;;;;;;;;;22.60;37.00;;;;;;1566104;75;1064;-72
2021/05/31 01:31:08;;;;;;;;;;;22.60;36.90;;;;;;1560033;75;1920;-72
2021/05/31 01:33:10;;;;;;;;;;;22.70;37.00;;;;;;1563006;75;793;-71
2021/05/31 01:35:14;;;;;;;;;;;22.60;36.80;;;;;;1568497;75;665;-72
2021/05/31 01:37:16;;;;;;;;;;;22.60;36.80;;;;;;1559519;75;1845;-71
2021/05/31 01:39:23;;;;;;;;;;;22.60;36.70;;;;;;1567048;75;685;-74
2021/05/31 01:41:25;;;;;;;;;;;22.60;36.80;;;;;;1573662;75;1541;-72
2021/05/31 01:43:27;;;;;;;;;;;22.50;36.80;;;;;;1571852;75;751;-72
2021/05/31 01:45:29;;;;;;;;;;;22.60;36.80;;;;;;1568100;74;812;-74
2021/05/31 01:47:30;;;;;;;;;;;22.60;36.70;;;;;;1571663;75;1128;-72
2021/05/31 01:49:32;;;;;;;;;;;22.60;36.70;;;;;;1567293;75;792;-72
2021/05/31 01:51:35;;;;;;;;;;;22.60;36.70;;;;;;1562246;75;1932;-71
2021/05/31 01:53:37;;;;;;;;;;;22.60;36.70;;;;;;1559848;75;725;-71
2021/05/31 01:55:39;;;;;;;;;;;22.60;36.70;;;;;;1563114;75;791;-71
2021/05/31 01:57:43;;;;;;;;;;;22.60;36.70;;;;;;1579610;75;1077;-71
2021/05/31 01:59:44;;;;;;;;;;;22.60;36.70;;;;;;1570258;75;782;-71
2021/05/31 02:01:47;;;;;;;;;;;22.60;36.80;;;;;;1564818;75;730;-71
2021/05/31 02:03:49;;;;;;;;;;;22.60;36.90;;;;;;1566188;75;686;-70
2021/05/31 02:05:51;;;;;;;;;;;22.60;36.80;;;;;;1576191;75;1174;-70
2021/05/31 02:07:54;;;;;;;;;;;22.60;36.80;;;;;;1564488;75;658;-71
2021/05/31 02:09:56;;;;;;;;;;;22.60;36.80;;;;;;1570154;75;1921;-70
2021/05/31 02:12:12;;;;;;;;;;;22.50;36.80;;;;;;1568553;75;771;-72
2021/05/31 02:14:18;;;;;;;;;;;22.60;36.80;;;;;;1569809;75;779;-73
2021/05/31 02:16:20;;;;;;;;;;;22.60;36.80;;;;;;1561872;75;1809;-73
2021/05/31 02:18:26;;;;;;;;;;;22.60;36.70;;;;;;1563636;75;828;-73
2021/05/31 02:20:27;;;;;;;;;;;22.60;36.70;;;;;;1559273;75;800;-71
2021/05/31 02:22:29;;;;;;;;;;;22.60;36.70;;;;;;1577599;75;703;-73
2021/05/31 02:24:34;;;;;;;;;;;22.60;36.80;;;;;;1574572;75;688;-73
2021/05/31 02:26:35;;;;;;;;;;;22.60;36.80;;;;;;1565237;75;1644;-72
2021/05/31 02:28:37;;;;;;;;;;;22.60;36.70;;;;;;1551515;76;857;-71
2021/05/31 02:30:38;;;;;;;;;;;22.60;36.70;;;;;;1569166;74;1943;-71
2021/05/31 02:32:51;;;;;;;;;;;22.50;36.60;;;;;;1573756;75;780;-72
2021/05/31 02:34:53;;;;;;;;;;;22.60;36.50;;;;;;1565940;75;1787;-73
2021/05/31 02:36:55;;;;;;;;;;;22.60;36.60;;;;;;1558875;75;1138;-71
2021/05/31 02:38:57;;;;;;;;;;;22.50;36.80;;;;;;1561639;75;759;-71
2021/05/31 02:40:59;;;;;;;;;;;22.50;36.80;;;;;;1559435;75;797;-70
2021/05/31 02:43:02;;;;;;;;;;;22.60;36.50;;;;;;1558557;75;740;-71
2021/05/31 02:45:04;;;;;;;;;;;22.60;36.40;;;;;;1554033;75;708;-72
2021/05/31 02:47:06;;;;;;;;;;;22.60;36.50;;;;;;1559783;75;1130;-72
2021/05/31 02:49:08;;;;;;;;;;;22.60;36.30;;;;;;1544587;73;3115;-63
2021/05/31 02:51:10;;;;;;;;;;;22.60;36.30;;;;;;1524903;76;1949;-64
2021/05/31 02:53:12;;;;;;;;;;;22.70;36.20;;;;;;1512826;76;745;-63
2021/05/31 02:55:15;;;;;;;;;;;22.60;36.30;;;;;;1487042;78;775;-64
2021/05/31 02:57:18;;;;;;;;;;;22.60;36.10;;;;;;1519558;76;780;-65
2021/05/31 02:59:19;;;;;;;;;;;22.70;36.30;;;;;;1489343;78;1190;-64
2021/05/31 03:01:21;;;;;;;;;;;22.60;36.30;;;;;;1488672;77;843;-64
2021/05/31 03:03:23;;;;;;;;;;;22.60;36.20;;;;;;1488289;78;710;-67
2021/05/31 03:05:27;;;;;;;;;;;22.70;36.40;;;;;;1488303;78;722;-63
2021/05/31 03:07:29;;;;;;;;;;;22.70;36.40;;;;;;1491128;78;722;-63
2021/05/31 03:09:31;;;;;;;;;;;22.60;36.30;;;;;;1491077;78;1164;-64
2021/05/31 03:11:33;;;;;;;;;;;22.60;36.40;;;;;;1494202;78;1900;-63
2021/05/31 03:13:35;;;;;;;;;;;22.60;36.40;;;;;;1486979;78;727;-64
2021/05/31 03:15:37;;;;;;;;;;;22.60;36.50;;;;;;1489400;78;740;-63
2021/05/31 03:17:39;;;;;;;;;;;22.60;36.50;;;;;;1490918;78;1237;-64
2021/05/31 03:19:41;;;;;;;;;;;22.60;36.50;;;;;;1497262;78;806;-63
2021/05/31 03:21:43;;;;;;;;;;;22.60;36.50;;;;;;1492162;78;820;-64
2021/05/31 03:23:44;;;;;;;;;;;22.60;36.50;;;;;;1511764;77;735;-66
2021/05/31 03:25:46;;;;;;;;;;;22.60;36.50;;;;;;1513082;77;807;-63
2021/05/31 03:27:48;;;;;;;;;;;22.60;36.50;;;;;;1516136;77;1145;-64
2021/05/31 03:29:50;;;;;;;;;;;22.60;36.50;;;;;;1514449;77;812;-62
2021/05/31 03:31:52;;;;;;;;;;;22.60;36.50;;;;;;1508620;77;1938;-64
2021/05/31 03:33:54;;;;;;;;;;;22.60;36.50;;;;;;1509791;77;753;-63
2021/05/31 03:35:56;;;;;;;;;;;22.60;36.50;;;;;;1515361;77;781;-63
2021/05/31 03:37:57;;;;;;;;;;;22.60;36.50;;;;;;1515369;77;1121;-65
2021/05/31 03:39:59;;;;;;;;;;;22.60;36.60;;;;;;1512312;77;745;-64
2021/05/31 03:42:01;;;;;;;;;;;22.60;36.80;;;;;;1509130;77;775;-64
2021/05/31 03:44:03;;;;;;;;;;;22.70;36.90;;;;;;1513756;77;835;-65
2021/05/31 03:46:05;;;;;;;;;;;22.60;36.90;;;;;;1512313;77;710;-64
2021/05/31 03:48:07;;;;;;;;;;;22.60;37.00;;;;;;1514639;77;1158;-63
2021/05/31 03:50:09;;;;;;;;;;;22.60;37.00;;;;;;1514920;77;805;-64
2021/05/31 03:52:11;;;;;;;;;;;22.60;37.00;;;;;;1510525;77;1923;-64
2021/05/31 03:54:13;;;;;;;;;;;22.60;36.90;;;;;;1512814;77;849;-63
2021/05/31 03:56:15;;;;;;;;;;;22.70;36.90;;;;;;1512182;77;758;-64
2021/05/31 03:58:17;;;;;;;;;;;22.70;36.90;;;;;;1513571;77;1143;-64
2021/05/31 04:00:19;;;;;;;;;;;22.70;37.00;;;;;;1517732;77;815;-64
2021/05/31 04:02:21;;;;;;;;;;;22.60;36.90;;;;;;1516260;77;904;-65
2021/05/31 04:04:23;;;;;;;;;;;22.70;37.00;;;;;;1514474;77;826;-65
2021/05/31 04:06:35;;;;;;;;;;;22.70;37.00;;;;;;1513893;77;825;-64
2021/05/31 04:13:08;;;;;;;;;;;22.60;37.00;;;;;;1489778;77;1621;-63
2021/05/31 04:15:10;;;;;;;;;;;22.60;37.00;;;;;;1489465;78;705;-64
2021/05/31 04:17:12;;;;;;;;;;;22.50;37.00;;;;;;1487444;78;784;-63
2021/05/31 04:19:14;;;;;;;;;;;22.60;36.90;;;;;;1487171;78;1132;-64
2021/05/31 04:21:16;;;;;;;;;;;22.60;36.90;;;;;;1488381;78;704;-64
2021/05/31 04:23:18;;;;;;;;;;;22.60;36.90;;;;;;1492152;78;698;-64
2021/05/31 04:25:20;;;;;;;;;;;22.60;36.90;;;;;;1490759;78;799;-62
2021/05/31 04:27:22;;;;;;;;;;;22.60;36.90;;;;;;1489831;78;731;-63
2021/05/31 04:29:23;;;;;;;;;;;22.60;37.00;;;;;;1515439;77;1157;-64
2021/05/31 04:31:25;;;;;;;;;;;22.60;36.90;;;;;;1519639;76;1925;-63
2021/05/31 04:33:27;;;;;;;;;;;22.60;36.90;;;;;;1518467;76;788;-62
2021/05/31 04:35:29;;;;;;;;;;;22.60;36.70;;;;;;1507274;76;765;-63
2021/05/31 04:37:33;;;;;;;;;;;22.60;36.70;;;;;;1509161;77;720;-64
2021/05/31 04:39:35;;;;;;;;;;;22.60;36.70;;;;;;1510403;77;719;-61
2021/05/31 04:41:37;;;;;;;;;;;22.60;36.80;;;;;;1511013;77;810;-64
2021/05/31 04:43:39;;;;;;;;;;;22.60;36.70;;;;;;1514791;77;742;-64
2021/05/31 04:45:40;;;;;;;;;;;22.70;36.90;;;;;;1513879;77;792;-65
2021/05/31 04:47:42;;;;;;;;;;;22.60;36.80;;;;;;1511159;77;1146;-63
2021/05/31 04:49:44;;;;;;;;;;;22.70;36.80;;;;;;1509217;77;813;-64
2021/05/31 04:51:46;;;;;;;;;;;22.60;36.70;;;;;;1512596;77;1943;-65
2021/05/31 04:53:48;;;;;;;;;;;22.70;36.80;;;;;;1512431;77;720;-64
2021/05/31 04:55:50;;;;;;;;;;;22.60;36.70;;;;;;1511169;77;824;-66
2021/05/31 04:57:52;;;;;;;;;;;22.60;36.70;;;;;;1512734;77;1146;-65
2021/05/31 04:59:55;;;;;;;;;;;22.60;36.80;;;;;;1515289;77;803;-64
2021/05/31 05:01:56;;;;;;;;;;;22.60;36.80;;;;;;1521184;77;703;-64
2021/05/31 05:03:59;;;;;;;;;;;22.70;36.90;;;;;;1515813;77;821;-65
2021/05/31 05:06:00;;;;;;;;;;;22.60;36.80;;;;;;1513725;77;770;-66
2021/05/31 05:08:02;;;;;;;;;;;22.70;36.90;;;;;;1513044;77;1117;-64
2021/05/31 05:10:05;;;;;;;;;;;22.70;36.90;;;;;;1512720;77;789;-64
2021/05/31 05:12:07;;;;;;;;;;;22.70;37.00;;;;;;1516517;77;1944;-65
2021/05/31 05:14:09;;;;;;;;;;;22.70;37.00;;;;;;1512008;77;723;-62
2021/05/31 05:16:11;;;;;;;;;;;22.70;37.10;;;;;;1512352;77;779;-64
2021/05/31 05:18:13;;;;;;;;;;;22.60;37.00;;;;;;1511898;77;1150;-62
2021/05/31 05:20:15;;;;;;;;;;;22.70;37.10;;;;;;1514480;77;955;-63
2021/05/31 05:22:17;;;;;;;;;;;22.60;37.10;;;;;;1516378;77;754;-63
2021/05/31 05:24:18;;;;;;;;;;;22.70;37.20;;;;;;1514262;77;744;-65
2021/05/31 05:26:20;;;;;;;;;;;22.60;37.10;;;;;;1516184;77;792;-63
2021/05/31 05:28:22;;;;;;;;;;;22.60;37.10;;;;;;1513349;77;1176;-63
2021/05/31 05:30:25;;;;;;;;;;;22.60;37.20;;;;;;1512063;77;702;-63
2021/05/31 05:32:27;;;;;;;;;;;22.60;37.30;;;;;;1511871;77;1945;-63
2021/05/31 05:34:29;;;;;;;;;;;22.60;37.20;;;;;;1511029;77;724;-63
2021/05/31 05:36:43;;;;;;;;;;;22.60;37.10;;;;;;1517232;77;813;-63
2021/05/31 05:43:15;;;;;;;;;;;22.70;37.30;;;;;;1513233;77;642;-64
2021/05/31 05:45:36;;;;;;;;;;;22.60;37.20;;;;;;1513603;77;1802;-63
2021/05/31 05:49:26;;;;;;;;;;;22.60;37.30;;;;;;1514441;77;1016;-64
2021/05/31 05:51:28;;;;;;;;;;;22.60;37.30;;;;;;1511449;77;1937;-63
2021/05/31 05:53:30;;;;;;;;;;;22.70;37.40;;;;;;1520513;77;843;-63
2021/05/31 05:55:32;;;;;;;;;;;22.60;37.40;;;;;;1522199;77;788;-63
2021/05/31 05:57:34;;;;;;;;;;;22.70;37.60;;;;;;1506567;77;1158;-63
2021/05/31 05:59:36;;;;;;;;;;;22.70;37.60;;;;;;1521432;77;796;-64
2021/05/31 06:01:38;;;;;;;;;;;22.70;37.40;;;;;;1521776;77;742;-64
2021/05/31 06:03:40;;;;;;;;;;;22.70;37.50;;;;;;1513306;77;777;-66
2021/05/31 06:05:42;;;;;;;;;;;22.80;37.50;;;;;;1517699;77;815;-64
2021/05/31 06:07:43;;;;;;;;;;;22.80;37.30;;;;;;1506927;77;1146;-64
2021/05/31 06:09:45;;;;;;;;;;;22.70;37.30;;;;;;1522839;76;871;-64
2021/05/31 06:11:47;;;;;;;;;;;22.80;37.30;;;;;;1530133;76;1930;-62
2021/05/31 06:13:51;;;;;;;;;;;22.80;37.40;;;;;;1521741;77;799;-65
2021/05/31 06:15:53;;;;;;;;;;;22.80;37.30;;;;;;1515995;76;805;-64
2021/05/31 06:17:55;;;;;;;;;;;22.80;37.40;;;;;;1531389;75;1176;-64
2021/05/31 06:20:00;;;;;;;;;;;22.70;37.60;;;;;;1516075;77;796;-65
2021/05/31 06:22:00;;;;;;;;;;;22.80;37.60;;;;;;1520805;77;1694;-63
2021/05/31 06:24:03;;;;;;;;;;;22.70;37.80;;;;;;1520166;77;774;-63
2021/05/31 06:26:05;;;;;;;;;;;22.70;37.80;;;;;;1518968;77;815;-64
2021/05/31 06:28:07;;;;;;;;;;;22.80;37.70;;;;;;1514188;77;1147;-63
2021/05/31 06:30:10;;;;;;;;;;;22.80;37.60;;;;;;1525269;77;763;-66
2021/05/31 06:32:12;;;;;;;;;;;22.80;37.70;;;;;;1506413;77;1944;-62
2021/05/31 06:34:13;;;;;;;;;;;22.80;37.70;;;;;;1520686;77;759;-64
2021/05/31 06:36:15;;;;;;;;;;;22.80;37.70;;;;;;1526747;77;809;-62
2021/05/31 06:38:17;;;;;;;;;;;22.80;37.70;;;;;;1510341;77;1151;-64
2021/05/31 06:40:19;;;;;;;;;;;22.80;37.70;;;;;;1520619;77;816;-63
2021/05/31 06:42:21;;;;;;;;;;;22.80;37.60;;;;;;1508695;77;832;-63
2021/05/31 06:44:23;;;;;;;;;;;22.80;37.50;;;;;;1514806;77;719;-65
2021/05/31 06:46:25;;;;;;;;;;;22.80;37.50;;;;;;1514665;77;846;-63
2021/05/31 06:48:26;;;;;;;;;;;22.80;37.50;;;;;;1515304;77;1188;-64
2021/05/31 06:50:29;;;;;;;;;;;22.90;37.70;;;;;;1514030;77;767;-64
2021/05/31 06:52:31;;;;;;;;;;;23.00;37.80;;;;;;1518338;77;1939;-65
2021/05/31 06:54:33;;;;;;;;;;;22.90;37.70;;;;;;1517451;77;776;-65
2021/05/31 06:56:35;;;;;;;;;;;22.80;37.40;;;;;;1517869;77;783;-65
2021/05/31 06:58:37;;;;;;;;;;;22.80;37.10;;;;;;1516365;77;1156;-64
2021/05/31 07:00:39;;;;;;;;;;;22.90;37.20;;;;;;1519470;77;771;-68
2021/05/31 07:02:41;;;;;;;;;;;22.90;37.00;;;;;;1514519;77;847;-66
2021/05/31 07:04:43;;;;;;;;;;;22.90;37.00;;;;;;1507714;77;847;-65
2021/05/31 07:06:45;;;;;;;;;;;22.90;36.80;;;;;;1511946;77;788;-65
2021/05/31 07:08:47;;;;;;;;;;;22.80;36.50;;;;;;1514155;77;1161;-65
2021/05/31 07:10:50;;;;;;;;;;;22.90;36.70;;;;;;1519715;77;805;-65
2021/05/31 07:12:53;;;;;;;;;;;22.80;36.50;;;;;;1513238;77;1925;-63
2021/05/31 07:14:56;;;;;;;;;;;22.70;36.30;;;;;;1512873;77;790;-65
2021/05/31 07:16:58;;;;;;;;;;;22.70;36.30;;;;;;1513249;77;795;-65
2021/05/31 07:19:00;;;;;;;;;;;22.70;36.20;;;;;;1516124;77;1158;-66
2021/05/31 07:21:02;;;;;;;;;;;22.80;36.00;;;;;;1519158;77;793;-65
2021/05/31 07:23:03;;;;;;;;;;;22.70;35.80;;;;;;1517454;77;795;-65
2021/05/31 07:25:06;;;;;;;;;;;22.70;35.60;;;;;;1501392;77;839;-65
2021/05/31 07:27:08;;;;;;;;;;;22.70;35.50;;;;;;1510388;77;812;-65
2021/05/31 07:29:10;;;;;;;;;;;22.70;35.40;;;;;;1521137;77;1146;-65
2021/05/31 07:31:11;;;;;;;;;;;22.80;35.20;;;;;;1523188;77;939;-65
2021/05/31 07:33:14;;;;;;;;;;;22.70;35.00;;;;;;1511051;77;1940;-65
2021/05/31 07:35:16;;;;;;;;;;;22.70;34.90;;;;;;1528807;77;798;-63
2021/05/31 07:37:18;;;;;;;;;;;22.70;34.90;;;;;;1505075;77;780;-65
2021/05/31 07:39:20;;;;;;;;;;;22.70;34.90;;;;;;1517727;77;1132;-65
2021/05/31 07:41:22;;;;;;;;;;;22.70;34.80;;;;;;1520453;77;803;-66
2021/05/31 07:43:24;;;;;;;;;;;22.70;34.70;;;;;;1517268;77;778;-66
2021/05/31 07:45:25;;;;;;;;;;;22.70;34.70;;;;;;1508907;77;782;-65
2021/05/31 07:47:27;;;;;;;;;;;22.70;34.70;;;;;;1533845;77;763;-65
2021/05/31 07:49:29;;;;;;;;;;;22.70;34.70;;;;;;1516781;77;1161;-65
2021/05/31 07:51:32;;;;;;;;;;;22.70;34.70;;;;;;1517912;77;790;-65
2021/05/31 07:53:34;;;;;;;;;;;22.70;34.70;;;;;;1520654;77;1935;-65
2021/05/31 07:55:36;;;;;;;;;;;22.70;34.70;;;;;;1517529;77;639;-65
2021/05/31 07:57:39;;;;;;;;;;;22.60;34.60;;;;;;1514810;77;1161;-65
2021/05/31 07:59:41;;;;;;;;;;;22.70;34.70;;;;;;1521232;77;813;-65
2021/05/31 08:01:43;;;;;;;;;;;22.60;34.60;;;;;;1516424;77;793;-65
2021/05/31 08:03:46;;;;;;;;;;;22.60;34.60;;;;;;1512121;77;792;-67
2021/05/31 08:05:48;;;;;;;;;;;22.80;34.60;;;;;;1508944;77;706;-65
2021/05/31 08:07:50;;;;;;;;;;;22.60;34.60;;;;;;1512851;77;1146;-64
2021/05/31 08:09:52;;;;;;;;;;;22.70;34.70;;;;;;1515156;77;788;-65
2021/05/31 08:11:54;;;;;;;;;;;22.70;34.70;;;;;;1512907;77;710;-65
2021/05/31 08:13:56;;;;;;;;;;;22.60;34.60;;;;;;1514827;77;1942;-65
2021/05/31 08:15:58;;;;;;;;;;;22.60;34.60;;;;;;1523471;77;896;-65
2021/05/31 08:17:59;;;;;;;;;;;22.60;34.60;;;;;;1513073;77;1129;-66
2021/05/31 08:20:01;;;;;;;;;;;22.60;34.50;;;;;;1506962;77;756;-64
2021/05/31 08:22:04;;;;;;;;;;;22.70;34.60;;;;;;1515321;77;734;-65
2021/05/31 08:24:06;;;;;;;;;;;22.70;34.60;;;;;;1519886;77;831;-65
2021/05/31 08:26:08;;;;;;;;;;;22.70;34.60;;;;;;1523057;77;726;-65
2021/05/31 08:28:10;;;;;;;;;;;22.60;34.50;;;;;;1522828;76;1135;-66
2021/05/31 08:30:12;;;;;;;;;;;22.70;34.60;;;;;;1520446;77;766;-65
2021/05/31 08:32:14;;;;;;;;;;;22.60;34.40;;;;;;1514903;77;1941;-65
2021/05/31 08:34:16;;;;;;;;;;;22.70;34.60;;;;;;1518716;77;739;-62
2021/05/31 08:36:18;;;;;;;;;;;22.70;34.60;;;;;;1528942;77;729;-64
2021/05/31 08:38:20;;;;;;;;;;;22.70;34.70;;;;;;1521684;77;1174;-64
2021/05/31 08:40:23;;;;;;;;;;;22.70;34.70;;;;;;1524086;77;802;-65
2021/05/31 08:42:25;;;;;;;;;;;22.70;34.70;;;;;;1524519;77;807;-64
2021/05/31 08:44:29;;;;;;;;;;;22.70;34.70;;;;;;1525126;77;754;-64
2021/05/31 08:46:30;;;;;;;;;;;22.80;34.70;;;;;;1527950;77;1767;-64
2021/05/31 08:48:32;;;;;;;;;;;22.70;34.70;;;;;;1531813;74;215807;-59
2021/05/31 08:50:34;;;;;;;;;;;22.70;34.70;;;;;;1565490;74;1157;-59
2021/05/31 08:52:36;;;;;;;;;;;22.70;34.70;;;;;;1569171;74;1938;-58
2021/05/31 08:54:38;;;;;;;;;;;22.60;34.60;;;;;;1572423;74;792;-57
2021/05/31 08:56:40;;;;;;;;;;;22.60;35.20;;;;;;1564960;74;810;-60
2021/05/31 08:58:42;;;;;;;;;;;22.50;35.60;;;;;;1564282;74;788;-61
2021/05/31 09:00:44;;;;;;;;;;;22.50;36.40;;;;;;1556750;74;1132;-60
2021/05/31 09:02:45;;;;;;;;;;;22.40;36.10;;;;;;1567973;74;780;-59
2021/05/31 09:04:50;;;;;;;;;;;22.30;33.90;;;;;;1557244;74;861;-59
2021/05/31 09:06:55;;;;;;;;;;;21.90;32.50;;;;;;1554485;74;1641;-59
2021/05/31 09:09:00;;;;;;;;;;;21.80;33.70;;;;;;1555090;74;1017;-57
2021/05/31 09:11:03;;;;;;;;;;;21.70;31.20;;;;;;1565413;74;1156;-59
2021/05/31 09:13:05;;;;;;;;;;;21.60;32.30;;;;;;1578911;74;1930;-60
2021/05/31 09:15:07;;;;;;;;;;;21.50;32.80;;;;;;1570391;74;775;-59
2021/05/31 09:17:09;;;;;;;;;;;21.40;32.80;;;;;;1572331;75;731;-59
2021/05/31 09:19:12;;;;;;;;;;;21.40;32.10;;;;;;1565289;74;664;-59
2021/05/31 09:21:19;;;;;;;;;;;21.40;32.10;;;;;;1569691;74;1132;-60
2021/05/31 09:23:21;;;;;;;;;;;21.30;32.10;;;;;;1566849;74;1816;-59
2021/05/31 09:25:24;;;;;;;;;;;21.30;32.30;;;;;;1570922;74;766;-59
2021/05/31 09:27:26;;;;;;;;;;;21.10;31.80;;;;;;1567540;74;816;-59
2021/05/31 09:29:28;;;;;;;;;;;21.20;32.00;;;;;;1563610;74;773;-58
2021/05/31 09:31:30;;;;;;;;;;;21.20;31.90;;;;;;1568723;74;1070;-60
2021/05/31 09:33:32;;;;;;;;;;;21.20;31.40;;;;;;1568813;74;1944;-58
2021/05/31 09:35:34;;;;;;;;;;;21.10;30.50;;;;;;1570038;74;741;-60
2021/05/31 09:37:45;;;;;;;;;;;21.10;30.90;;;;;;1569850;74;737;-59
2021/05/31 09:39:47;;;;;;;;;;;21.00;31.30;;;;;;1566338;74;799;-60
2021/05/31 09:41:50;;;;;;;;;;;21.10;31.30;;;;;;1532758;76;1105;-58
2021/05/31 09:43:53;;;;;;;;;;;21.10;31.40;;;;;;1570492;74;772;-60
2021/05/31 09:45:55;;;;;;;;;;;21.20;31.50;;;;;;1567565;74;1801;-59
2021/05/31 09:48:00;;;;;;;;;;;21.30;31.20;;;;;;1569892;74;773;-59
2021/05/31 09:50:06;;;;;;;;;;;21.20;30.30;;;;;;1566497;74;1133;-59
2021/05/31 09:52:09;;;;;;;;;;;21.10;29.70;;;;;;1570252;74;716;-58
2021/05/31 09:54:11;;;;;;;;;;;21.00;30.40;;;;;;1568460;74;1902;-60
2021/05/31 09:56:14;;;;;;;;;;;21.00;30.50;;;;;;1571489;74;767;-58
2021/05/31 09:58:16;;;;;;;;;;;21.10;30.90;;;;;;1567148;74;759;-59
2021/05/31 10:00:21;;;;;;;;;;;21.20;30.00;;;;;;1568247;74;1125;-59
2021/05/31 10:02:46;;;;;;;;;;;21.00;29.80;;;;;;1564167;74;716;-58
2021/05/31 10:04:45;;;;;;;;;;;20.90;29.80;;;;;;1563613;74;1618;-58
2021/05/31 10:06:47;;;;;;;;;;;20.90;30.60;;;;;;1564187;74;1655;-59
2021/05/31 10:08:41;;;;;;;;;;;21.10;30.60;;;;;;1567115;74;1759;-60
2021/05/31 10:10:43;;;;;;;;;;;21.10;30.50;;;;;;1573398;74;1125;-60
2021/05/31 10:12:45;;;;;;;;;;;20.90;29.40;;;;;;1571690;74;1934;-58
2021/05/31 10:14:47;;;;;;;;;;;20.90;29.50;;;;;;1567911;74;755;-57
2021/05/31 10:16:49;;;;;;;;;;;21.00;30.40;;;;;;1568304;74;689;-58
2021/05/31 10:18:51;;;;;;;;;;;21.10;29.70;;;;;;1570569;74;674;-59
2021/05/31 10:20:53;;;;;;;;;;;21.00;29.60;;;;;;1569519;74;1168;-58
2021/05/31 10:22:56;;;;;;;;;;;20.90;30.20;;;;;;1568664;74;741;-59
2021/05/31 10:24:58;;;;;;;;;;;20.90;30.50;;;;;;1567551;75;752;-58
2021/05/31 10:27:00;;;;;;;;;;;20.80;30.20;;;;;;1576841;74;684;-60
2021/05/31 10:29:02;;;;;;;;;;;20.90;31.00;;;;;;1576281;74;794;-58
2021/05/31 10:31:05;;;;;;;;;;;20.80;31.00;;;;;;1573579;74;1117;-59
2021/05/31 10:33:16;;;;;;;;;;;20.80;31.10;;;;;;1578739;74;1950;-60
2021/05/31 10:35:19;;;;;;;;;;;20.80;31.00;;;;;;1567130;74;737;-58
2021/05/31 10:37:25;;;;;;;;;;;20.90;31.20;;;;;;1577179;74;901;-59
2021/05/31 10:39:27;;;;;;;;;;;20.80;30.90;;;;;;1570177;74;746;-59
2021/05/31 10:41:31;;;;;;;;;;;20.90;31.30;;;;;;1572632;74;1145;-58
2021/05/31 10:43:32;;;;;;;;;;;21.00;30.80;;;;;;1571192;74;959;-59
2021/05/31 10:45:34;;;;;;;;;;;20.90;30.20;;;;;;1564331;74;710;-58
2021/05/31 10:47:37;;;;;;;;;;;20.90;30.10;;;;;;1570454;74;715;-58
2021/05/31 10:49:39;;;;;;;;;;;20.90;30.60;;;;;;1571310;74;796;-57
2021/05/31 10:51:42;;;;;;;;;;;20.90;30.30;;;;;;1571678;74;1136;-60
2021/05/31 10:53:44;;;;;;;;;;;20.90;30.70;;;;;;1567856;74;1913;-59
2021/05/31 10:55:53;;;;;;;;;;;20.90;30.60;;;;;;1574614;74;812;-60
2021/05/31 10:57:55;;;;;;;;;;;21.00;30.50;;;;;;1578677;74;741;-59
2021/05/31 10:59:58;;;;;;;;;;;20.90;29.90;;;;;;1570236;74;761;-57
2021/05/31 11:02:00;;;;;;;;;;;20.90;30.00;;;;;;1566831;74;1149;-59
2021/05/31 11:04:03;;;;;;;;;;;20.90;29.10;;;;;;1574595;74;774;-59
2021/05/31 11:06:07;;;;;;;;;;;20.80;29.80;;;;;;1582763;74;659;-58
2021/05/31 11:08:09;;;;;;;;;;;20.80;29.30;;;;;;1571880;74;2275;-59
2021/05/31 11:10:18;;;;;;;;;;;20.80;30.00;;;;;;1567158;74;1128;-61
2021/05/31 11:12:32;;;;;;;;;;;20.80;29.60;;;;;;1566914;74;775;-58
2021/05/31 11:14:38;;;;;;;;;;;20.80;30.00;;;;;;1564501;74;1910;-59
2021/05/31 11:16:55;;;;;;;;;;;20.80;30.20;;;;;;1583005;74;812;-59
2021/05/31 11:18:58;;;;;;;;;;;20.80;30.20;;;;;;1573018;74;784;-59
2021/05/31 11:21:01;;;;;;;;;;;20.70;29.70;;;;;;1569788;74;1865;-57
2021/05/31 11:23:03;;;;;;;;;;;20.60;29.80;;;;;;1574022;74;684;-58
2021/05/31 11:25:06;;;;;;;;;;;20.60;30.10;;;;;;1559588;74;801;-59
2021/05/31 11:27:09;;;;;;;;;;;20.60;29.70;;;;;;1573395;74;668;-59
2021/05/31 11:29:11;;;;;;;;;;;20.60;28.80;;;;;;1572246;74;703;-64
2021/05/31 11:31:13;;;;;;;;;;;20.60;29.50;;;;;;1567872;74;1133;-60
2021/05/31 11:33:16;;;;;;;;;;;20.60;29.50;;;;;;1571470;74;1938;-57
2021/05/31 11:35:18;;;;;;;;;;;20.50;29.80;;;;;;1581637;74;785;-59
2021/05/31 11:37:23;;;;;;;;;;;20.50;30.80;;;;;;1568359;75;814;-59
2021/05/31 11:39:25;;;;;;;;;;;20.60;30.90;;;;;;1571991;74;739;-58
2021/05/31 11:41:31;;;;;;;;;;;20.70;31.20;;;;;;1570183;74;1126;-59
2021/05/31 11:43:32;;;;;;;;;;;20.70;31.40;;;;;;1570882;74;778;-59
2021/05/31 11:45:36;;;;;;;;;;;20.80;30.70;;;;;;1581941;74;733;-58
2021/05/31 11:47:38;;;;;;;;;;;20.60;30.30;;;;;;1575628;74;919;-59
2021/05/31 11:49:40;;;;;;;;;;;20.70;30.20;;;;;;1561859;74;766;-59
2021/05/31 11:51:42;;;;;;;;;;;20.70;30.00;;;;;;1576834;74;1191;-59
2021/05/31 11:53:48;;;;;;;;;;;20.50;29.70;;;;;;1572291;74;1954;-60
2021/05/31 11:55:50;;;;;;;;;;;20.50;30.50;;;;;;1579267;74;859;-59
2021/05/31 11:57:52;;;;;;;;;;;20.50;30.70;;;;;;1570222;74;824;-59
2021/05/31 11:59:55;;;;;;;;;;;20.50;30.50;;;;;;1570170;74;784;-59
2021/05/31 12:01:57;;;;;;;;;;;20.50;30.50;;;;;;1566208;74;1096;-60
2021/05/31 12:03:59;;;;;;;;;;;20.50;30.60;;;;;;1568001;74;766;-59
2021/05/31 12:06:02;;;;;;;;;;;20.40;30.80;;;;;;1563458;74;727;-57
2021/05/31 12:08:11;;;;;;;;;;;20.40;31.60;;;;;;1562316;74;1911;-59
2021/05/31 12:10:13;;;;;;;;;;;20.50;30.60;;;;;;1572696;74;1108;-59
2021/05/31 12:12:15;;;;;;;;;;;20.40;31.00;;;;;;1567974;74;787;-58
2021/05/31 12:14:24;;;;;;;;;;;20.40;31.00;;;;;;1568538;74;1926;-59
2021/05/31 12:16:21;;;;;;;;;;;20.50;30.70;;;;;;1568293;74;1062;-57
2021/05/31 12:18:25;;;;;;;;;;;20.40;30.00;;;;;;1581358;74;801;-58
2021/05/31 12:20:27;;;;;;;;;;;20.40;30.00;;;;;;1569843;74;1129;-58
2021/05/31 12:22:29;;;;;;;;;;;20.40;30.80;;;;;;1575585;74;769;-57